Overview Statistics Trail Chart Weather Telemetry Raw packets
 

This is the latest recevied weather packets stored in our database for station/object VE3EP-1. If no packets are shown the sender has not sent any weather packets the latest 10 day(s).

<< 28 29 30 31 32 33 34 >>
Time Temp. Humidity Pressure Rain* Wind** Luminosity Snow
1787990048 12.22° C 92% 1024.5 hPa 0 mm - - -
1787989446 12.78° C 90% 1024.5 hPa 0 mm - - -
1787988848 13.33° C 89% 1024.4 hPa 0 mm - - -
1787988246 13.89° C 89% 1024.3 hPa 0 mm - - -
1787987646 13.89° C 89% 1024.4 hPa 0 mm - - -
1787987046 13.89° C 89% 1024.1 hPa 0 mm - - -
1787986454 14.44° C 88% 1024 hPa 0 mm - - -
1787985246 13.89° C 90% 1024 hPa 0 mm - - -
1787984646 13.33° C 92% 1024.2 hPa 0 mm - - -
1787984047 13.33° C 93% 1024 hPa 0 mm - - -
1787983447 13.33° C 93% 1024.3 hPa 0 mm - - -
1787982846 13.33° C 93% 1024.1 hPa 0 mm - - -
1787982246 13.89° C 92% 1024.2 hPa 0 mm - - -
1787981646 13.89° C 92% 1024.2 hPa 0 mm - - -
1787981046 14.44° C 93% 1024.4 hPa 0 mm - - -
1787980447 13.89° C 93% 1024.6 hPa 0 mm - - -
1787979847 14.44° C 93% 1024.4 hPa 0 mm - - -
1787979248 14.44° C 92% 1024.4 hPa 0 mm - - -
1787978647 14.44° C 90% 1024.3 hPa 0 mm - - -
1787978047 16.11° C 86% 1024.2 hPa 0 mm - - -
1787977448 17.22° C 86% 1024.4 hPa 0 mm - - -
1787976846 17.22° C 85% 1024.1 hPa 0 mm - - -
1787976248 17.22° C 85% 1024.1 hPa 0 mm - - -
1787975647 17.22° C 85% 1024.1 hPa 0 mm - - -
1787975046 17.78° C 84% 1023.9 hPa 0 mm - - -

* Rain latest hour (hover to see other rain measurements)
** Current wind speed in m/s (hover to see current wind gust speed)